• Join FlightAware (Why Join?)
  • Login
  • US Flag 
02:06PM EDT


 

Airport Tracker/Info


-or-


 

Live Flight TrackerFlight Track Log ✈ DCM5251 ✈ 05-May-2013 ✈ KTEB - KPHL

Flight Track Log - Related Links

Times and Time Zones

All times are in EDT time to prevent confusion due to time zone crossing. See the DCM5251 flight status page for this flight to view local times or setup timezone preferences in your user account.

Time Position Orientation Groundspeed Altitude Reporting Facility
EDT Latitude Longitude Course Direction KTS MPH feet Rate Location/Type
03:24PM 40.8412 -74.0780 217° Southwest 174 200 500  Level FlightAware ADS-B
03:25PM 40.8350 -74.0873 229° Southwest 179 206 800 1,560 Climbing FlightAware ADS-B
03:25PM 40.8333 -74.0902 232° Southwest 181 208 900 720 Climbing FlightAware ADS-B
03:25PM 40.8316 -74.0939 239° Southwest 184 212 900 840 Level FlightAware ADS-B
03:25PM 40.8302 -74.0974 242° Southwest 183 211 1,000 960 Climbing FlightAware ADS-B
03:25PM 40.8292 -74.1004 246° West 183 211 1,000 540 Level FlightAware ADS-B
03:25PM 40.8269 -74.1084 249° West 182 209 1,100 240 Climbing FlightAware ADS-B
03:26PM 40.8156 -74.1467 249° West 184 212 1,200 120 Climbing FlightAware ADS-B
03:26PM 40.8142 -74.1525 252° West 203 234 1,200  Level FlightAware ADS-B
03:26PM 40.8135 -74.1568 258° West 207 238 1,200 960 Level FlightAware ADS-B
03:26PM 40.8131 -74.1607 262° West 210 242 1,300 1,800 Climbing FlightAware ADS-B
03:26PM 40.8128 -74.1693 267° West 218 251 1,500 1,980 Climbing FlightAware ADS-B
03:26PM 40.8130 -74.1811 271° West 228 262 1,800 2,460 Climbing FlightAware ADS-B
03:26PM 40.8131 -74.2045 270° West 253 291 2,500 2,820 Climbing FlightAware ADS-B
03:26PM 40.8133 -74.2156 271° West 263 303 2,900 3,780 Climbing FlightAware ADS-B
03:27PM 40.8143 -74.2405 273° West 276 318 3,900 4,200 Climbing FlightAware ADS-B
03:27PM 40.8154 -74.2676 273° West 285 328 5,100 4,620 Climbing FlightAware ADS-B
03:27PM 40.8160 -74.2939 272° West 288 331 6,300 3,960 Climbing FlightAware ADS-B
03:27PM 40.8164 -74.3189 271° West 279 321 7,100 3,120 Climbing FlightAware ADS-B
03:27PM 40.8164 -74.3231 270° West 279 321 7,200 1,980 Climbing FlightAware ADS-B
03:27PM 40.8160 -74.3296 265° West 280 322 7,300 840 Climbing FlightAware ADS-B
03:28PM 40.8155 -74.3340 261° West 281 323 7,300 960 Level FlightAware ADS-B
03:28PM 40.8146 -74.3399 259° West 281 323 7,400 1,680 Climbing FlightAware ADS-B
03:28PM 40.8134 -74.3458 255° West 282 325 7,500 1,620 Climbing FlightAware ADS-B
03:28PM 40.8100 -74.3578 249° West 285 328 7,700 1,200 Climbing FlightAware ADS-B
03:28PM 40.8083 -74.3626 245° Southwest 286 329 7,700  Level FlightAware ADS-B
03:28PM 40.8061 -74.3676 240° Southwest 289 333 7,700  Level FlightAware ADS-B
03:28PM 40.8035 -74.3727 236° Southwest 285 328 7,700  Level FlightAware ADS-B
03:28PM 40.8008 -74.3774 233° Southwest 294 338 7,700  Level FlightAware ADS-B
03:28PM 40.7889 -74.3967 231° Southwest 297 342 7,700  Level FlightAware ADS-B
03:28PM 40.7785 -74.4138 231° Southwest 285 328 7,700  Level FlightAware ADS-B
03:28PM 40.7761 -74.4177 231° Southwest 292 336 7,700  Level FlightAware ADS-B
03:29PM 40.7666 -74.4341 233° Southwest 285 328 7,700 -240 Level FlightAware ADS-B
03:29PM 40.7540 -74.4550 231° Southwest 285 328 7,600 -1,020 Descending FlightAware ADS-B
03:29PM 40.7412 -74.4761 231° Southwest 285 328 7,200 -1,500 Descending FlightAware ADS-B
03:29PM 40.7283 -74.4983 233° Southwest 284 327 6,800 -960 Descending FlightAware ADS-B
03:30PM 40.7148 -74.5208 232° Southwest 283 326 6,700 -300 Descending FlightAware ADS-B
03:30PM 40.7098 -74.5292 232° Southwest 288 331 6,700  Level FlightAware ADS-B
03:30PM 40.6984 -74.5484 232° Southwest 284 327 6,700  Level FlightAware ADS-B
03:30PM 40.6951 -74.5539 232° Southwest 284 327 6,700  Level FlightAware ADS-B
03:30PM 40.6846 -74.5715 232° Southwest 284 327 6,700  Level FlightAware ADS-B
03:30PM 40.6787 -74.5812 231° Southwest 285 328 6,700  Level FlightAware ADS-B
03:31PM 40.6705 -74.5950 232° Southwest 283 326 6,700  Level FlightAware ADS-B
03:31PM 40.6566 -74.6185 232° Southwest 284 327 6,700  Level FlightAware ADS-B
03:31PM 40.6524 -74.6256 232° Southwest 283 326 6,700  Level FlightAware ADS-B
03:32PM 40.6279 -74.6665 232° Southwest 281 323 6,700  Level FlightAware ADS-B
03:32PM 40.6133 -74.6907 232° Southwest 283 326 6,700  Level FlightAware ADS-B
03:32PM 40.6040 -74.7067 233° Southwest 283 326 6,700  Level FlightAware ADS-B
03:32PM 40.6004 -74.7136 236° Southwest 283 326 6,700  Level FlightAware ADS-B
03:32PM 40.5924 -74.7334 242° Southwest 284 327 6,700  Level FlightAware ADS-B
03:33PM 40.5849 -74.7565 247° West 285 328 6,700  Level FlightAware ADS-B
03:33PM 40.5822 -74.7661 250° West 285 328 6,700  Level FlightAware ADS-B
03:33PM 40.5796 -74.7776 253° West 286 329 6,700  Level FlightAware ADS-B
03:33PM 40.5777 -74.7887 257° West 287 330 6,700  Level FlightAware ADS-B
03:33PM 40.5748 -74.8171 262° West 287 330 6,700  Level FlightAware ADS-B
03:33PM 40.5720 -74.8485 263° West 286 329 6,700  Level FlightAware ADS-B
03:34PM 40.5695 -74.8743 263° West 285 328 6,700  Level FlightAware ADS-B
03:34PM 40.5666 -74.9012 262° West 287 330 6,700 180 Level FlightAware ADS-B
03:34PM 40.5640 -74.9255 262° West 287 330 6,800  Climbing FlightAware ADS-B
03:34PM 40.5617 -74.9514 263° West 286 329 6,700 -240 Descending FlightAware ADS-B
03:35PM 40.5587 -74.9783 262° West 286 329 6,700  Level FlightAware ADS-B
03:35PM 40.5558 -75.0046 262° West 287 330 6,700  Level FlightAware ADS-B
03:35PM 40.5527 -75.0341 262° West 287 330 6,700  Level FlightAware ADS-B
03:36PM 40.5502 -75.0602 263° West 287 330 6,700 180 Level FlightAware ADS-B
03:36PM 40.5475 -75.0879 263° West 288 331 6,800  Climbing FlightAware ADS-B
03:36PM 40.5440 -75.1184 261° West 287 330 6,700 -240 Descending FlightAware ADS-B
03:36PM 40.5409 -75.1448 261° West 287 330 6,700  Level FlightAware ADS-B
03:37PM 40.5375 -75.1750 262° West 287 330 6,700 120 Level FlightAware ADS-B
03:37PM 40.5341 -75.2055 262° West 287 330 6,800 120 Climbing FlightAware ADS-B
03:37PM 40.5312 -75.2338 262° West 287 330 6,800  Level FlightAware ADS-B
03:37PM 40.5296 -75.2512 263° West 287 330 6,800  Level FlightAware ADS-B
03:38PM 40.5270 -75.2778 263° West 289 333 6,800  Level FlightAware ADS-B
03:38PM 40.5237 -75.3057 261° West 287 330 6,800  Level FlightAware ADS-B
03:38PM 40.5205 -75.3334 261° West 288 331 6,800  Level FlightAware ADS-B
03:38PM 40.5175 -75.3596 261° West 288 331 6,800  Level FlightAware ADS-B
03:39PM 40.5142 -75.3771 256° West 286 329 6,800  Level FlightAware ADS-B
03:39PM 40.5103 -75.3917 251° West 285 328 6,800  Level FlightAware ADS-B
03:39PM 40.5038 -75.4090 244° Southwest 284 327 6,800  Level FlightAware ADS-B
03:39PM 40.4973 -75.4203 233° Southwest 281 323 6,800  Level FlightAware ADS-B
03:39PM 40.4889 -75.4307 223° Southwest 280 322 6,800  Level FlightAware ADS-B
03:39PM 40.4841 -75.4353 216° Southwest 276 318 6,800  Level FlightAware ADS-B
03:39PM 40.4714 -75.4445 209° Southwest 274 315 6,800  Level FlightAware ADS-B
03:40PM 40.4652 -75.4479 203° Southwest 275 316 6,800  Level FlightAware ADS-B
03:40PM 40.4419 -75.4595 201° Southwest 273 314 6,800  Level FlightAware ADS-B
03:40PM 40.4238 -75.4683 200° South 274 315 6,800  Level FlightAware ADS-B
03:40PM 40.4050 -75.4773 200° South 274 315 6,800  Level FlightAware ADS-B
03:41PM 40.3831 -75.4881 201° Southwest 272 313 6,800  Level FlightAware ADS-B
03:41PM 40.3649 -75.4970 200° South 273 314 6,800  Level FlightAware ADS-B
03:41PM 40.3465 -75.5059 200° South 273 314 6,800  Level FlightAware ADS-B
03:41PM 40.3265 -75.5158 201° Southwest 273 314 6,800  Level FlightAware ADS-B
03:42PM 40.3070 -75.5255 201° Southwest 273 314 6,800  Level FlightAware ADS-B
03:42PM 40.2890 -75.5345 201° Southwest 274 315 6,800  Level FlightAware ADS-B
03:42PM 40.2704 -75.5437 201° Southwest 274 315 6,800  Level FlightAware ADS-B
03:43PM 40.2526 -75.5524 200° South 272 313 6,800  Level FlightAware ADS-B
03:43PM 40.2331 -75.5621 201° Southwest 272 313 6,800  Level FlightAware ADS-B
03:43PM 40.2197 -75.5687 201° Southwest 272 313 6,800  Level FlightAware ADS-B
03:43PM 40.2037 -75.5752 197° South 271 312 6,800 -300 Level FlightAware ADS-B
03:43PM 40.1906 -75.5782 190° South 271 312 6,700 -660 Descending FlightAware ADS-B
03:44PM 40.1804 -75.5792 184° South 268 308 6,600 -480 Descending FlightAware ADS-B
03:44PM 40.1571 -75.5800 182° South 264 304 6,500 -540 Descending FlightAware ADS-B
03:44PM 40.1368 -75.5805 181° South 262 302 6,300 -600 Descending FlightAware ADS-B
03:44PM 40.1184 -75.5808 181° South 263 303 6,200 -600 Descending FlightAware ADS-B
03:45PM 40.0986 -75.5809 180° South 266 306 6,000 -600 Descending FlightAware ADS-B
03:45PM 40.0796 -75.5811 180° South 267 307 5,900 -420 Descending FlightAware ADS-B
03:45PM 40.0604 -75.5813 180° South 268 308 5,800 -240 Descending FlightAware ADS-B
03:45PM 40.0414 -75.5815 180° South 268 308 5,800  Level FlightAware ADS-B
03:46PM 40.0220 -75.5818 181° South 267 307 5,800  Level FlightAware ADS-B
03:46PM 40.0127 -75.5816 179° South 261 300 5,800 -480 Level FlightAware ADS-B
03:46PM 40.0062 -75.5809 175° South 254 292 5,700 -1,440 Descending FlightAware ADS-B
03:46PM 39.9978 -75.5795 173° South 245 282 5,500 -2,160 Descending FlightAware ADS-B
03:46PM 39.9876 -75.5771 170° South 235 270 5,100 -1,920 Descending FlightAware ADS-B
03:46PM 39.9722 -75.5733 169° South 220 253 4,700 -1,800 Descending FlightAware ADS-B
03:47PM 39.9561 -75.5700 171° South 206 237 4,200 -1,680 Descending FlightAware ADS-B
03:47PM 39.9480 -75.5684 171° South 201 231 4,000 -1,440 Descending FlightAware ADS-B
03:47PM 39.9340 -75.5655 171° South 189 217 3,600 -1,380 Descending FlightAware ADS-B
03:47PM 39.9291 -75.5640 167° South 183 211 3,500 -960 Descending FlightAware ADS-B
03:47PM 39.9234 -75.5612 159° South 179 206 3,400 -1,200 Descending FlightAware ADS-B
03:47PM 39.9178 -75.5572 151° Southeast 176 203 3,200 -1,020 Descending FlightAware ADS-B
03:48PM 39.9110 -75.5515 147° Southeast 169 194 3,100 -660 Descending FlightAware ADS-B
03:48PM 39.9050 -75.5468 149° Southeast 169 194 3,000 -720 Descending FlightAware ADS-B
03:48PM 39.8933 -75.5377 149° Southeast 172 198 2,800 -420 Descending FlightAware ADS-B
03:48PM 39.8823 -75.5293 150° Southeast 178 205 2,800 -240 Level FlightAware ADS-B
03:49PM 39.8736 -75.5224 149° Southeast 180 207 2,700 -240 Descending FlightAware ADS-B
03:49PM 39.8621 -75.5129 148° Southeast 178 205 2,700  Level FlightAware ADS-B
03:49PM 39.8578 -75.5085 142° Southeast 180 207 2,700  Level FlightAware ADS-B
03:49PM 39.8550 -75.5044 132° Southeast 179 206 2,700  Level FlightAware ADS-B
03:49PM 39.8530 -75.5006 124° Southeast 178 205 2,700 -600 Level FlightAware ADS-B
03:49PM 39.8510 -75.4960 120° Southeast 175 201 2,600 -480 Descending FlightAware ADS-B
03:49PM 39.8479 -75.4883 118° Southeast 172 198 2,600 -540 Level FlightAware ADS-B
03:50PM 39.8423 -75.4742 117° Southeast 170 196 2,400 -840 Descending FlightAware ADS-B
03:50PM 39.8377 -75.4617 116° Southeast 178 205 2,200 -840 Descending FlightAware ADS-B
03:50PM 39.8350 -75.4534 113° Southeast 175 201 2,100 -480 Descending FlightAware ADS-B
03:50PM 39.8337 -75.4488 110° East 171 197 2,100  Level FlightAware ADS-B
03:50PM 39.8325 -75.4442 109° East 171 197 2,100 -600 Level FlightAware ADS-B
03:50PM 39.8315 -75.4392 105° East 170 196 2,000 -780 Descending FlightAware ADS-B
03:50PM 39.8311 -75.4362 100° East 168 193 2,000  Level FlightAware ADS-B
03:50PM 39.8307 -75.4328 99° East 165 190 2,000 -720 Level FlightAware ADS-B
03:50PM 39.8307 -75.4268 90° East 162 186 1,900 -600 Descending FlightAware ADS-B
03:50PM 39.8312 -75.4225 81° East 161 185 1,900 -600 Level FlightAware ADS-B
03:51PM 39.8321 -75.4174 77° East 159 183 1,800 -600 Descending FlightAware ADS-B
03:51PM 39.8352 -75.4036 74° East 163 188 1,700 -420 Descending FlightAware ADS-B
03:51PM 39.8386 -75.3873 75° East 163 188 1,600 -600 Descending FlightAware ADS-B
03:51PM 39.8413 -75.3727 76° East 165 190 1,400 -960 Descending FlightAware ADS-B
03:52PM 39.8432 -75.3630 76° East 160 184 1,200 -900 Descending FlightAware ADS-B
03:52PM 39.8462 -75.3484 75° East 156 180 1,000 -1,020 Descending FlightAware ADS-B
03:52PM 39.8488 -75.3353 76° East 142 163 700 -780 Descending FlightAware ADS-B
03:52PM 39.8525 -75.3162 76° East 131 151 500 -540 Descending FlightAware ADS-B
03:53PM 39.8600 -75.2810 74° East 123 142 -540 Descending FlightAware
03:54PM 39.8640 -75.2600 76° East 126 145  Level FlightAware
04:00PM 39.8667 -75.2333 90° East  Level FlightAware Approximate
04:01PM 39.8722 -75.2409 90° East  Level Estimated
04:02PM 39.8722 -75.2409 90° East  Level Estimated